Wilkes Barre Scranton International Airport
KAVP : now visible

Airfield :











YOU CAN JOIN US ON...

 
LOGIN :

Register | Disclaimer

   EN    FR    IT 

 









Legend :    VFR   Marginal VFR   IFR   Intensive IFR   Very Intensive IFR
Visi :
Ceiling :
>= 8 km
>= 3000ft
5 to 8 km
1000 to 3000 ft
1500m to 5 km
500 to 1000 ft
800 to 1500m
200 to 500 ft
< 800m
< 200 ft
Symbols :   Thunderstorms  Fog  Heavy snow  Heavy precipitations  Wind > 20 kt






- Airport Elevation : 962 ft
- IATA code : AVP


KAVP - Wilkes Barre Scranton International

CURRENT METAR :
  • 080654Z 27003KT 6SM HZ OVC050 03/M01 A3006 RMK AO2 SLP184 T00281006

EXPIRED METARs :
  • 080615Z 00000KT 6SM HZ SCT017 SCT033 OVC049 02/M01 A3007 RMK AO2 T00221006
  • 080554Z 23003KT 6SM HZ BKN018 BKN049 02/M01 A3007 RMK AO2 SLP186 60001 T00221011 10039 20017 55004
  • 080539Z 00000KT 6SM HZ BKN019 OVC050 02/M01 A3006 RMK AO2 T00221006
  • 080506Z 27003KT 6SM HZ SCT020 BKN060 02/M01 A3006 RMK AO2 T00221006

TAF KAVP
Valid from the 08 at 06:00 until the 09 at 06:00 UTC


080528Z 0806/0906 VRB05KT 6SM BR BKN025
TEMPO 0808/0810 BKN018
FM081000 30008G14KT P6SM FEW025 OVC040
FM081600 31009G16KT P6SM SCT180
FM082000 31006KT P6SM SCT200
FM090100 00000KT P6SM SCT250
KZNY FIR / North America



MET'MAP, your aeronautical weather chart ! - Copyright ORBIFLY December 2007 - Disclaimer

ORBIFLY MET'MAP TEAM :

Programming & Development : Alexandra Zaïnal
Original concept : Baudouin d'Aumeries
Technical & hardware support : Manuel Goepfert
Assistance : Marc-Olivier Méhu




SOURCES & CREDITS :

   NOAA       Earth
Advisory